sensor_id;sensor_type;location;lat;lon;timestamp;P1;durP1;ratioP1;P2;durP2;ratioP2
19889;SDS011;10107;51.198;6.824;2024-01-11T00:01:22;44.95;;;20.50;;
19889;SDS011;10107;51.198;6.824;2024-01-11T00:05:24;41.67;;;19.67;;
19889;SDS011;10107;51.198;6.824;2024-01-11T00:09:26;43.58;;;20.40;;
19889;SDS011;10107;51.198;6.824;2024-01-11T00:13:27;44.03;;;20.30;;
19889;SDS011;10107;51.198;6.824;2024-01-11T00:17:31;40.42;;;20.23;;
19889;SDS011;10107;51.198;6.824;2024-01-11T00:21:32;39.83;;;20.35;;
19889;SDS011;10107;51.198;6.824;2024-01-11T00:25:34;42.88;;;19.10;;
19889;SDS011;10107;51.198;6.824;2024-01-11T00:29:36;43.70;;;20.33;;
19889;SDS011;10107;51.198;6.824;2024-01-11T00:33:39;42.15;;;19.40;;
19889;SDS011;10107;51.198;6.824;2024-01-11T00:37:41;40.85;;;19.08;;
19889;SDS011;10107;51.198;6.824;2024-01-11T00:41:42;40.22;;;20.00;;
19889;SDS011;10107;51.198;6.824;2024-01-11T00:45:44;38.95;;;19.63;;
19889;SDS011;10107;51.198;6.824;2024-01-11T00:49:48;34.92;;;17.98;;
19889;SDS011;10107;51.198;6.824;2024-01-11T00:53:50;39.40;;;19.23;;
19889;SDS011;10107;51.198;6.824;2024-01-11T00:57:52;37.00;;;19.20;;
19889;SDS011;10107;51.198;6.824;2024-01-11T01:01:53;38.47;;;19.17;;
19889;SDS011;10107;51.198;6.824;2024-01-11T01:05:56;40.05;;;20.23;;
19889;SDS011;10107;51.198;6.824;2024-01-11T01:09:58;40.78;;;18.52;;
19889;SDS011;10107;51.198;6.824;2024-01-11T01:14:00;38.88;;;19.25;;
19889;SDS011;10107;51.198;6.824;2024-01-11T01:18:02;38.25;;;18.30;;
19889;SDS011;10107;51.198;6.824;2024-01-11T01:22:06;39.97;;;18.60;;
19889;SDS011;10107;51.198;6.824;2024-01-11T01:26:07;37.15;;;18.27;;
19889;SDS011;10107;51.198;6.824;2024-01-11T01:30:09;42.17;;;19.67;;
19889;SDS011;10107;51.198;6.824;2024-01-11T01:34:11;37.25;;;18.95;;
19889;SDS011;10107;51.198;6.824;2024-01-11T01:38:16;39.15;;;17.95;;
19889;SDS011;10107;51.198;6.824;2024-01-11T01:42:18;36.70;;;17.98;;
19889;SDS011;10107;51.198;6.824;2024-01-11T01:46:21;38.28;;;17.98;;
19889;SDS011;10107;51.198;6.824;2024-01-11T01:50:25;33.72;;;18.08;;
19889;SDS011;10107;51.198;6.824;2024-01-11T01:54:28;40.40;;;19.55;;
19889;SDS011;10107;51.198;6.824;2024-01-11T01:58:32;38.90;;;18.80;;
19889;SDS011;10107;51.198;6.824;2024-01-11T02:02:35;37.00;;;18.17;;
19889;SDS011;10107;51.198;6.824;2024-01-11T02:06:36;35.03;;;17.17;;
19889;SDS011;10107;51.198;6.824;2024-01-11T02:10:40;38.25;;;18.60;;
19889;SDS011;10107;51.198;6.824;2024-01-11T02:14:43;36.45;;;18.45;;
19889;SDS011;10107;51.198;6.824;2024-01-11T02:18:45;35.88;;;18.80;;
19889;SDS011;10107;51.198;6.824;2024-01-11T02:22:49;31.00;;;13.90;;
19889;SDS011;10107;51.198;6.824;2024-01-11T02:26:59;41.72;;;18.55;;
19889;SDS011;10107;51.198;6.824;2024-01-11T02:31:01;36.10;;;18.23;;
19889;SDS011;10107;51.198;6.824;2024-01-11T02:35:03;41.95;;;18.83;;
19889;SDS011;10107;51.198;6.824;2024-01-11T02:39:05;43.03;;;19.83;;
19889;SDS011;10107;51.198;6.824;2024-01-11T02:43:09;40.57;;;18.40;;
19889;SDS011;10107;51.198;6.824;2024-01-11T02:47:11;38.53;;;18.40;;
19889;SDS011;10107;51.198;6.824;2024-01-11T02:51:13;34.20;;;17.13;;
19889;SDS011;10107;51.198;6.824;2024-01-11T02:55:14;34.65;;;17.98;;
19889;SDS011;10107;51.198;6.824;2024-01-11T02:59:18;35.30;;;17.60;;
19889;SDS011;10107;51.198;6.824;2024-01-11T03:03:19;38.50;;;18.27;;
19889;SDS011;10107;51.198;6.824;2024-01-11T03:07:22;39.00;;;18.23;;
19889;SDS011;10107;51.198;6.824;2024-01-11T03:11:23;38.75;;;17.27;;
19889;SDS011;10107;51.198;6.824;2024-01-11T03:15:26;38.17;;;18.63;;
19889;SDS011;10107;51.198;6.824;2024-01-11T03:19:28;40.72;;;18.88;;
19889;SDS011;10107;51.198;6.824;2024-01-11T03:23:30;41.92;;;18.40;;
19889;SDS011;10107;51.198;6.824;2024-01-11T03:27:32;38.83;;;19.13;;
19889;SDS011;10107;51.198;6.824;2024-01-11T03:31:35;38.20;;;18.13;;
19889;SDS011;10107;51.198;6.824;2024-01-11T03:35:38;41.58;;;19.02;;
19889;SDS011;10107;51.198;6.824;2024-01-11T03:39:40;38.40;;;18.95;;
19889;SDS011;10107;51.198;6.824;2024-01-11T03:43:43;41.63;;;19.25;;
19889;SDS011;10107;51.198;6.824;2024-01-11T03:47:46;40.78;;;18.67;;
19889;SDS011;10107;51.198;6.824;2024-01-11T03:51:48;39.75;;;19.08;;
19889;SDS011;10107;51.198;6.824;2024-01-11T03:55:50;44.28;;;21.17;;
19889;SDS011;10107;51.198;6.824;2024-01-11T03:59:52;45.80;;;20.90;;
19889;SDS011;10107;51.198;6.824;2024-01-11T04:03:55;41.97;;;20.85;;
19889;SDS011;10107;51.198;6.824;2024-01-11T04:07:56;40.90;;;20.08;;
19889;SDS011;10107;51.198;6.824;2024-01-11T04:11:58;47.47;;;21.98;;
19889;SDS011;10107;51.198;6.824;2024-01-11T04:16:03;41.60;;;19.65;;
19889;SDS011;10107;51.198;6.824;2024-01-11T04:20:07;43.92;;;21.10;;
19889;SDS011;10107;51.198;6.824;2024-01-11T04:24:09;44.42;;;21.60;;
19889;SDS011;10107;51.198;6.824;2024-01-11T04:28:11;49.03;;;22.02;;
19889;SDS011;10107;51.198;6.824;2024-01-11T04:32:12;46.80;;;21.80;;
19889;SDS011;10107;51.198;6.824;2024-01-11T04:36:16;41.15;;;21.35;;
19889;SDS011;10107;51.198;6.824;2024-01-11T04:40:18;48.30;;;21.02;;
19889;SDS011;10107;51.198;6.824;2024-01-11T04:44:19;41.42;;;20.60;;
19889;SDS011;10107;51.198;6.824;2024-01-11T04:48:21;35.20;;;15.73;;
19889;SDS011;10107;51.198;6.824;2024-01-11T04:52:24;44.88;;;21.70;;
19889;SDS011;10107;51.198;6.824;2024-01-11T04:56:26;44.45;;;21.67;;
19889;SDS011;10107;51.198;6.824;2024-01-11T05:00:29;43.53;;;20.33;;
19889;SDS011;10107;51.198;6.824;2024-01-11T05:04:31;44.78;;;20.23;;
19889;SDS011;10107;51.198;6.824;2024-01-11T05:08:34;43.75;;;21.40;;
19889;SDS011;10107;51.198;6.824;2024-01-11T05:12:36;44.17;;;20.50;;
19889;SDS011;10107;51.198;6.824;2024-01-11T05:16:38;44.78;;;20.55;;
19889;SDS011;10107;51.198;6.824;2024-01-11T05:20:40;42.88;;;20.90;;
19889;SDS011;10107;51.198;6.824;2024-01-11T05:24:44;47.28;;;21.95;;
19889;SDS011;10107;51.198;6.824;2024-01-11T05:28:45;46.10;;;21.38;;
19889;SDS011;10107;51.198;6.824;2024-01-11T05:32:47;46.03;;;22.23;;
19889;SDS011;10107;51.198;6.824;2024-01-11T05:36:49;43.20;;;20.65;;
19889;SDS011;10107;51.198;6.824;2024-01-11T05:40:52;48.58;;;22.50;;
19889;SDS011;10107;51.198;6.824;2024-01-11T05:44:53;49.28;;;22.98;;
19889;SDS011;10107;51.198;6.824;2024-01-11T05:48:55;45.72;;;22.35;;
19889;SDS011;10107;51.198;6.824;2024-01-11T05:52:57;51.22;;;23.40;;
19889;SDS011;10107;51.198;6.824;2024-01-11T05:57:00;46.15;;;21.35;;
19889;SDS011;10107;51.198;6.824;2024-01-11T06:01:02;45.03;;;21.70;;
19889;SDS011;10107;51.198;6.824;2024-01-11T06:05:04;44.63;;;22.05;;
19889;SDS011;10107;51.198;6.824;2024-01-11T06:09:09;46.08;;;21.67;;
19889;SDS011;10107;51.198;6.824;2024-01-11T06:13:12;36.77;;;16.73;;
19889;SDS011;10107;51.198;6.824;2024-01-11T06:17:14;42.35;;;20.65;;
19889;SDS011;10107;51.198;6.824;2024-01-11T06:21:16;39.10;;;16.43;;
19889;SDS011;10107;51.198;6.824;2024-01-11T06:25:17;48.72;;;21.40;;
19889;SDS011;10107;51.198;6.824;2024-01-11T06:29:21;41.90;;;20.93;;
19889;SDS011;10107;51.198;6.824;2024-01-11T06:33:22;46.05;;;22.20;;
19889;SDS011;10107;51.198;6.824;2024-01-11T06:37:24;45.90;;;21.88;;
19889;SDS011;10107;51.198;6.824;2024-01-11T06:41:26;46.10;;;22.08;;
19889;SDS011;10107;51.198;6.824;2024-01-11T06:45:29;56.85;;;24.48;;
19889;SDS011;10107;51.198;6.824;2024-01-11T06:49:30;48.83;;;23.48;;
19889;SDS011;10107;51.198;6.824;2024-01-11T06:53:32;45.97;;;21.92;;
19889;SDS011;10107;51.198;6.824;2024-01-11T06:57:34;52.10;;;25.00;;
19889;SDS011;10107;51.198;6.824;2024-01-11T07:01:37;54.58;;;23.55;;
19889;SDS011;10107;51.198;6.824;2024-01-11T07:05:39;53.63;;;24.35;;
19889;SDS011;10107;51.198;6.824;2024-01-11T07:09:40;56.22;;;27.00;;
19889;SDS011;10107;51.198;6.824;2024-01-11T07:13:42;61.60;;;27.02;;
19889;SDS011;10107;51.198;6.824;2024-01-11T07:17:45;55.60;;;26.15;;
19889;SDS011;10107;51.198;6.824;2024-01-11T07:21:47;53.05;;;25.95;;
19889;SDS011;10107;51.198;6.824;2024-01-11T07:25:49;54.53;;;26.33;;
19889;SDS011;10107;51.198;6.824;2024-01-11T07:29:51;54.75;;;25.30;;
19889;SDS011;10107;51.198;6.824;2024-01-11T07:33:54;59.65;;;25.52;;
19889;SDS011;10107;51.198;6.824;2024-01-11T07:37:56;56.55;;;25.48;;
19889;SDS011;10107;51.198;6.824;2024-01-11T07:41:58;53.70;;;24.60;;
19889;SDS011;10107;51.198;6.824;2024-01-11T07:45:59;53.35;;;24.98;;
19889;SDS011;10107;51.198;6.824;2024-01-11T07:50:03;53.17;;;24.83;;
19889;SDS011;10107;51.198;6.824;2024-01-11T07:54:06;49.55;;;24.77;;
19889;SDS011;10107;51.198;6.824;2024-01-11T07:58:08;52.30;;;25.45;;
19889;SDS011;10107;51.198;6.824;2024-01-11T08:02:12;48.67;;;23.20;;
19889;SDS011;10107;51.198;6.824;2024-01-11T08:06:15;51.25;;;24.60;;
19889;SDS011;10107;51.198;6.824;2024-01-11T08:10:17;51.97;;;23.90;;
19889;SDS011;10107;51.198;6.824;2024-01-11T08:14:19;39.30;;;18.57;;
19889;SDS011;10107;51.198;6.824;2024-01-11T08:18:21;57.78;;;23.48;;
19889;SDS011;10107;51.198;6.824;2024-01-11T08:22:24;49.45;;;22.45;;
19889;SDS011;10107;51.198;6.824;2024-01-11T08:26:26;44.97;;;21.52;;
19889;SDS011;10107;51.198;6.824;2024-01-11T08:30:27;43.53;;;20.80;;
19889;SDS011;10107;51.198;6.824;2024-01-11T08:34:29;45.17;;;21.75;;
19889;SDS011;10107;51.198;6.824;2024-01-11T08:38:32;47.83;;;22.70;;
19889;SDS011;10107;51.198;6.824;2024-01-11T08:42:34;47.78;;;22.13;;
19889;SDS011;10107;51.198;6.824;2024-01-11T08:46:36;47.00;;;21.57;;
19889;SDS011;10107;51.198;6.824;2024-01-11T08:50:38;41.42;;;20.70;;
19889;SDS011;10107;51.198;6.824;2024-01-11T08:54:41;46.72;;;21.55;;
19889;SDS011;10107;51.198;6.824;2024-01-11T08:58:42;44.65;;;21.75;;
19889;SDS011;10107;51.198;6.824;2024-01-11T09:02:44;43.70;;;22.25;;
19889;SDS011;10107;51.198;6.824;2024-01-11T09:06:46;52.38;;;25.75;;
19889;SDS011;10107;51.198;6.824;2024-01-11T09:10:49;45.67;;;23.27;;
19889;SDS011;10107;51.198;6.824;2024-01-11T09:14:51;49.30;;;24.13;;
19889;SDS011;10107;51.198;6.824;2024-01-11T09:18:53;42.70;;;21.85;;
19889;SDS011;10107;51.198;6.824;2024-01-11T09:22:54;40.08;;;22.83;;
19889;SDS011;10107;51.198;6.824;2024-01-11T09:26:58;44.28;;;24.83;;
19889;SDS011;10107;51.198;6.824;2024-01-11T09:30:59;40.72;;;24.20;;
19889;SDS011;10107;51.198;6.824;2024-01-11T09:35:02;41.60;;;24.17;;
19889;SDS011;10107;51.198;6.824;2024-01-11T09:39:05;32.45;;;17.85;;
19889;SDS011;10107;51.198;6.824;2024-01-11T09:43:09;42.08;;;23.15;;
19889;SDS011;10107;51.198;6.824;2024-01-11T09:47:11;44.40;;;22.73;;
19889;SDS011;10107;51.198;6.824;2024-01-11T09:51:16;49.60;;;24.90;;
19889;SDS011;10107;51.198;6.824;2024-01-11T09:55:18;46.63;;;23.50;;
19889;SDS011;10107;51.198;6.824;2024-01-11T09:59:21;45.00;;;22.65;;
19889;SDS011;10107;51.198;6.824;2024-01-11T10:03:26;40.03;;;21.88;;
19889;SDS011;10107;51.198;6.824;2024-01-11T10:07:28;40.88;;;22.20;;
19889;SDS011;10107;51.198;6.824;2024-01-11T10:11:31;39.03;;;21.67;;
19889;SDS011;10107;51.198;6.824;2024-01-11T10:15:35;46.63;;;23.77;;
19889;SDS011;10107;51.198;6.824;2024-01-11T10:19:37;46.75;;;24.73;;
19889;SDS011;10107;51.198;6.824;2024-01-11T10:23:39;43.42;;;23.10;;
19889;SDS011;10107;51.198;6.824;2024-01-11T10:27:41;42.40;;;22.42;;
19889;SDS011;10107;51.198;6.824;2024-01-11T10:31:45;45.95;;;23.27;;
19889;SDS011;10107;51.198;6.824;2024-01-11T10:35:47;45.55;;;22.83;;
19889;SDS011;10107;51.198;6.824;2024-01-11T10:39:50;53.92;;;24.38;;
19889;SDS011;10107;51.198;6.824;2024-01-11T10:43:53;49.65;;;25.85;;
19889;SDS011;10107;51.198;6.824;2024-01-11T10:48:02;52.45;;;26.17;;
19889;SDS011;10107;51.198;6.824;2024-01-11T10:52:04;54.67;;;27.23;;
19889;SDS011;10107;51.198;6.824;2024-01-11T10:56:09;53.47;;;26.73;;
19889;SDS011;10107;51.198;6.824;2024-01-11T11:00:12;55.30;;;28.40;;
19889;SDS011;10107;51.198;6.824;2024-01-11T11:04:15;59.05;;;27.10;;
19889;SDS011;10107;51.198;6.824;2024-01-11T11:08:19;50.80;;;25.70;;
19889;SDS011;10107;51.198;6.824;2024-01-11T11:12:23;48.40;;;24.48;;
19889;SDS011;10107;51.198;6.824;2024-01-11T11:16:25;32.78;;;17.45;;
19889;SDS011;10107;51.198;6.824;2024-01-11T11:20:29;42.63;;;23.30;;
19889;SDS011;10107;51.198;6.824;2024-01-11T11:24:33;44.08;;;22.50;;
19889;SDS011;10107;51.198;6.824;2024-01-11T11:28:35;43.15;;;23.60;;
19889;SDS011;10107;51.198;6.824;2024-01-11T11:32:37;41.20;;;22.35;;
19889;SDS011;10107;51.198;6.824;2024-01-11T11:36:40;40.05;;;23.13;;
19889;SDS011;10107;51.198;6.824;2024-01-11T11:40:43;46.50;;;23.83;;
19889;SDS011;10107;51.198;6.824;2024-01-11T11:44:48;41.28;;;23.33;;
19889;SDS011;10107;51.198;6.824;2024-01-11T11:48:50;43.85;;;23.77;;
19889;SDS011;10107;51.198;6.824;2024-01-11T11:52:56;41.08;;;21.52;;
19889;SDS011;10107;51.198;6.824;2024-01-11T11:56:58;41.90;;;22.00;;
19889;SDS011;10107;51.198;6.824;2024-01-11T12:01:01;38.63;;;20.58;;
19889;SDS011;10107;51.198;6.824;2024-01-11T12:05:04;35.35;;;19.20;;
19889;SDS011;10107;51.198;6.824;2024-01-11T12:09:07;36.30;;;19.60;;
19889;SDS011;10107;51.198;6.824;2024-01-11T12:13:11;34.42;;;18.92;;
19889;SDS011;10107;51.198;6.824;2024-01-11T12:17:13;35.45;;;19.00;;
19889;SDS011;10107;51.198;6.824;2024-01-11T12:21:15;35.30;;;19.40;;
19889;SDS011;10107;51.198;6.824;2024-01-11T12:25:18;32.85;;;19.20;;
19889;SDS011;10107;51.198;6.824;2024-01-11T12:29:20;37.30;;;18.88;;
19889;SDS011;10107;51.198;6.824;2024-01-11T12:33:22;34.85;;;19.52;;
19889;SDS011;10107;51.198;6.824;2024-01-11T12:37:25;34.77;;;19.83;;
19889;SDS011;10107;51.198;6.824;2024-01-11T12:41:28;37.58;;;20.05;;
19889;SDS011;10107;51.198;6.824;2024-01-11T12:45:31;38.83;;;20.92;;
19889;SDS011;10107;51.198;6.824;2024-01-11T12:49:33;40.83;;;21.23;;
19889;SDS011;10107;51.198;6.824;2024-01-11T12:53:35;34.77;;;20.00;;
19889;SDS011;10107;51.198;6.824;2024-01-11T12:57:38;39.15;;;20.30;;
19889;SDS011;10107;51.198;6.824;2024-01-11T13:01:40;37.60;;;20.15;;
19889;SDS011;10107;51.198;6.824;2024-01-11T13:05:42;43.83;;;22.17;;
19889;SDS011;10107;51.198;6.824;2024-01-11T13:09:44;41.30;;;21.58;;
19889;SDS011;10107;51.198;6.824;2024-01-11T13:13:47;46.08;;;23.35;;
19889;SDS011;10107;51.198;6.824;2024-01-11T13:21:50;39.75;;;21.70;;
19889;SDS011;10107;51.198;6.824;2024-01-11T13:25:52;38.58;;;20.83;;
19889;SDS011;10107;51.198;6.824;2024-01-11T13:29:55;39.30;;;22.35;;
19889;SDS011;10107;51.198;6.824;2024-01-11T13:33:58;42.88;;;23.13;;
19889;SDS011;10107;51.198;6.824;2024-01-11T13:38:00;45.28;;;24.13;;
19889;SDS011;10107;51.198;6.824;2024-01-11T13:42:02;41.67;;;22.65;;
19889;SDS011;10107;51.198;6.824;2024-01-11T13:46:10;45.28;;;22.67;;
19889;SDS011;10107;51.198;6.824;2024-01-11T13:50:16;44.45;;;22.52;;
19889;SDS011;10107;51.198;6.824;2024-01-11T13:54:18;40.67;;;23.15;;
19889;SDS011;10107;51.198;6.824;2024-01-11T13:58:20;45.35;;;23.05;;
19889;SDS011;10107;51.198;6.824;2024-01-11T14:02:23;39.60;;;21.17;;
19889;SDS011;10107;51.198;6.824;2024-01-11T14:10:27;32.63;;;19.38;;
19889;SDS011;10107;51.198;6.824;2024-01-11T14:14:28;37.88;;;19.75;;
19889;SDS011;10107;51.198;6.824;2024-01-11T14:18:31;39.35;;;19.25;;
19889;SDS011;10107;51.198;6.824;2024-01-11T14:22:33;38.45;;;19.67;;
19889;SDS011;10107;51.198;6.824;2024-01-11T14:26:35;30.27;;;17.70;;
19889;SDS011;10107;51.198;6.824;2024-01-11T14:30:37;33.30;;;17.15;;
19889;SDS011;10107;51.198;6.824;2024-01-11T14:34:40;32.75;;;17.27;;
19889;SDS011;10107;51.198;6.824;2024-01-11T14:38:42;28.70;;;15.82;;
19889;SDS011;10107;51.198;6.824;2024-01-11T14:42:43;28.30;;;14.77;;
19889;SDS011;10107;51.198;6.824;2024-01-11T14:46:45;27.50;;;14.82;;
19889;SDS011;10107;51.198;6.824;2024-01-11T14:50:48;25.95;;;13.98;;
19889;SDS011;10107;51.198;6.824;2024-01-11T14:54:50;29.23;;;15.85;;
19889;SDS011;10107;51.198;6.824;2024-01-11T14:58:51;25.33;;;13.52;;
19889;SDS011;10107;51.198;6.824;2024-01-11T15:02:54;28.93;;;14.60;;
19889;SDS011;10107;51.198;6.824;2024-01-11T15:06:57;31.08;;;15.40;;
19889;SDS011;10107;51.198;6.824;2024-01-11T15:10:58;27.90;;;13.65;;
19889;SDS011;10107;51.198;6.824;2024-01-11T15:15:00;31.17;;;14.73;;
19889;SDS011;10107;51.198;6.824;2024-01-11T15:19:02;28.05;;;14.15;;
19889;SDS011;10107;51.198;6.824;2024-01-11T15:23:05;27.08;;;13.75;;
19889;SDS011;10107;51.198;6.824;2024-01-11T15:27:07;27.88;;;14.85;;
19889;SDS011;10107;51.198;6.824;2024-01-11T15:31:08;40.00;;;18.15;;
19889;SDS011;10107;51.198;6.824;2024-01-11T15:35:10;36.13;;;18.40;;
19889;SDS011;10107;51.198;6.824;2024-01-11T15:39:13;36.28;;;19.10;;
19889;SDS011;10107;51.198;6.824;2024-01-11T15:43:15;32.22;;;16.90;;
19889;SDS011;10107;51.198;6.824;2024-01-11T15:47:16;34.10;;;17.48;;
19889;SDS011;10107;51.198;6.824;2024-01-11T15:51:19;35.25;;;17.48;;
19889;SDS011;10107;51.198;6.824;2024-01-11T15:55:21;34.83;;;17.40;;
19889;SDS011;10107;51.198;6.824;2024-01-11T16:03:25;31.77;;;16.48;;
19889;SDS011;10107;51.198;6.824;2024-01-11T16:07:26;28.05;;;15.90;;
19889;SDS011;10107;51.198;6.824;2024-01-11T16:11:29;34.55;;;17.35;;
19889;SDS011;10107;51.198;6.824;2024-01-11T16:15:31;29.17;;;15.35;;
19889;SDS011;10107;51.198;6.824;2024-01-11T16:19:33;32.13;;;15.77;;
19889;SDS011;10107;51.198;6.824;2024-01-11T16:23:36;30.50;;;14.32;;
19889;SDS011;10107;51.198;6.824;2024-01-11T16:27:40;31.07;;;15.43;;
19889;SDS011;10107;51.198;6.824;2024-01-11T16:31:41;28.70;;;15.18;;
19889;SDS011;10107;51.198;6.824;2024-01-11T16:35:43;28.63;;;15.20;;
19889;SDS011;10107;51.198;6.824;2024-01-11T16:39:46;28.73;;;14.38;;
19889;SDS011;10107;51.198;6.824;2024-01-11T16:43:50;30.20;;;15.38;;
19889;SDS011;10107;51.198;6.824;2024-01-11T16:47:51;28.20;;;15.55;;
19889;SDS011;10107;51.198;6.824;2024-01-11T16:51:53;28.95;;;14.82;;
19889;SDS011;10107;51.198;6.824;2024-01-11T16:55:55;28.75;;;14.43;;
19889;SDS011;10107;51.198;6.824;2024-01-11T16:59:58;28.27;;;14.75;;
19889;SDS011;10107;51.198;6.824;2024-01-11T17:08:02;28.42;;;14.35;;
19889;SDS011;10107;51.198;6.824;2024-01-11T17:16:08;24.33;;;12.73;;
19889;SDS011;10107;51.198;6.824;2024-01-11T17:24:13;26.17;;;13.80;;
19889;SDS011;10107;51.198;6.824;2024-01-11T17:28:15;29.05;;;14.02;;
19889;SDS011;10107;51.198;6.824;2024-01-11T17:32:18;25.20;;;12.68;;
19889;SDS011;10107;51.198;6.824;2024-01-11T17:36:19;17.38;;;9.90;;
19889;SDS011;10107;51.198;6.824;2024-01-11T17:40:21;18.10;;;10.77;;
19889;SDS011;10107;51.198;6.824;2024-01-11T17:44:23;21.92;;;12.05;;
19889;SDS011;10107;51.198;6.824;2024-01-11T17:48:26;25.15;;;14.23;;
19889;SDS011;10107;51.198;6.824;2024-01-11T17:52:28;21.90;;;13.95;;
19889;SDS011;10107;51.198;6.824;2024-01-11T17:56:30;23.98;;;13.05;;
19889;SDS011;10107;51.198;6.824;2024-01-11T18:00:31;25.20;;;13.30;;
19889;SDS011;10107;51.198;6.824;2024-01-11T18:04:35;26.40;;;13.63;;
19889;SDS011;10107;51.198;6.824;2024-01-11T18:08:37;25.58;;;14.10;;
19889;SDS011;10107;51.198;6.824;2024-01-11T18:12:38;21.67;;;13.25;;
19889;SDS011;10107;51.198;6.824;2024-01-11T18:16:40;22.20;;;13.02;;
19889;SDS011;10107;51.198;6.824;2024-01-11T18:20:43;20.08;;;12.27;;
19889;SDS011;10107;51.198;6.824;2024-01-11T18:24:45;24.95;;;13.48;;
19889;SDS011;10107;51.198;6.824;2024-01-11T18:28:47;23.45;;;14.02;;
19889;SDS011;10107;51.198;6.824;2024-01-11T18:32:49;22.83;;;13.15;;
19889;SDS011;10107;51.198;6.824;2024-01-11T18:36:52;21.73;;;11.77;;
19889;SDS011;10107;51.198;6.824;2024-01-11T18:44:56;17.80;;;10.82;;
19889;SDS011;10107;51.198;6.824;2024-01-11T18:48:58;19.13;;;12.02;;
19889;SDS011;10107;51.198;6.824;2024-01-11T18:53:01;20.40;;;11.68;;
19889;SDS011;10107;51.198;6.824;2024-01-11T18:57:03;21.45;;;12.15;;
19889;SDS011;10107;51.198;6.824;2024-01-11T19:01:06;21.40;;;13.63;;
19889;SDS011;10107;51.198;6.824;2024-01-11T19:05:09;31.48;;;15.93;;
19889;SDS011;10107;51.198;6.824;2024-01-11T19:09:12;27.13;;;13.75;;
19889;SDS011;10107;51.198;6.824;2024-01-11T19:13:15;25.50;;;13.98;;
19889;SDS011;10107;51.198;6.824;2024-01-11T19:17:17;24.38;;;14.23;;
19889;SDS011;10107;51.198;6.824;2024-01-11T19:21:18;26.70;;;14.73;;
19889;SDS011;10107;51.198;6.824;2024-01-11T19:25:21;28.00;;;15.93;;
19889;SDS011;10107;51.198;6.824;2024-01-11T19:29:23;31.08;;;15.82;;
19889;SDS011;10107;51.198;6.824;2024-01-11T19:33:25;31.10;;;16.67;;
19889;SDS011;10107;51.198;6.824;2024-01-11T19:37:28;27.23;;;14.95;;
19889;SDS011;10107;51.198;6.824;2024-01-11T19:41:31;29.17;;;14.70;;
19889;SDS011;10107;51.198;6.824;2024-01-11T19:45:32;30.75;;;15.20;;
19889;SDS011;10107;51.198;6.824;2024-01-11T19:49:34;29.27;;;15.07;;
19889;SDS011;10107;51.198;6.824;2024-01-11T19:53:36;27.10;;;14.23;;
19889;SDS011;10107;51.198;6.824;2024-01-11T19:57:39;25.35;;;13.38;;
19889;SDS011;10107;51.198;6.824;2024-01-11T20:01:42;25.05;;;13.80;;
19889;SDS011;10107;51.198;6.824;2024-01-11T20:05:43;25.70;;;13.27;;
19889;SDS011;10107;51.198;6.824;2024-01-11T20:09:45;22.63;;;12.93;;
19889;SDS011;10107;51.198;6.824;2024-01-11T20:13:48;29.20;;;15.20;;
19889;SDS011;10107;51.198;6.824;2024-01-11T20:17:50;30.48;;;15.63;;
19889;SDS011;10107;51.198;6.824;2024-01-11T20:21:51;27.90;;;14.40;;
19889;SDS011;10107;51.198;6.824;2024-01-11T20:25:53;25.05;;;12.80;;
19889;SDS011;10107;51.198;6.824;2024-01-11T20:29:58;25.17;;;12.63;;
19889;SDS011;10107;51.198;6.824;2024-01-11T20:34:01;21.63;;;12.88;;
19889;SDS011;10107;51.198;6.824;2024-01-11T20:38:02;20.27;;;12.07;;
19889;SDS011;10107;51.198;6.824;2024-01-11T20:42:04;22.98;;;12.43;;
19889;SDS011;10107;51.198;6.824;2024-01-11T20:46:08;23.27;;;13.00;;
19889;SDS011;10107;51.198;6.824;2024-01-11T20:50:09;22.85;;;13.32;;
19889;SDS011;10107;51.198;6.824;2024-01-11T20:54:11;22.17;;;13.18;;
19889;SDS011;10107;51.198;6.824;2024-01-11T20:58:13;23.33;;;13.40;;
19889;SDS011;10107;51.198;6.824;2024-01-11T21:02:16;23.08;;;12.95;;
19889;SDS011;10107;51.198;6.824;2024-01-11T21:06:18;26.63;;;14.80;;
19889;SDS011;10107;51.198;6.824;2024-01-11T21:10:19;27.65;;;15.18;;
19889;SDS011;10107;51.198;6.824;2024-01-11T21:14:24;26.85;;;14.48;;
19889;SDS011;10107;51.198;6.824;2024-01-11T21:18:27;26.35;;;15.68;;
19889;SDS011;10107;51.198;6.824;2024-01-11T21:22:29;24.27;;;14.32;;
19889;SDS011;10107;51.198;6.824;2024-01-11T21:26:31;26.38;;;15.05;;
19889;SDS011;10107;51.198;6.824;2024-01-11T21:30:33;28.05;;;14.50;;
19889;SDS011;10107;51.198;6.824;2024-01-11T21:34:36;26.60;;;14.80;;
19889;SDS011;10107;51.198;6.824;2024-01-11T21:38:38;24.55;;;15.07;;
19889;SDS011;10107;51.198;6.824;2024-01-11T21:42:39;24.38;;;13.95;;
19889;SDS011;10107;51.198;6.824;2024-01-11T21:46:41;25.33;;;15.55;;
19889;SDS011;10107;51.198;6.824;2024-01-11T21:50:44;28.55;;;15.63;;
19889;SDS011;10107;51.198;6.824;2024-01-11T21:54:45;28.42;;;16.90;;
19889;SDS011;10107;51.198;6.824;2024-01-11T21:58:47;26.40;;;14.80;;
19889;SDS011;10107;51.198;6.824;2024-01-11T22:02:49;25.35;;;15.13;;
19889;SDS011;10107;51.198;6.824;2024-01-11T22:06:52;32.55;;;17.17;;
19889;SDS011;10107;51.198;6.824;2024-01-11T22:10:55;31.45;;;18.33;;
19889;SDS011;10107;51.198;6.824;2024-01-11T22:14:56;28.63;;;17.38;;
19889;SDS011;10107;51.198;6.824;2024-01-11T22:18:58;28.90;;;17.08;;
19889;SDS011;10107;51.198;6.824;2024-01-11T22:23:01;26.92;;;15.85;;
19889;SDS011;10107;51.198;6.824;2024-01-11T22:27:03;30.35;;;17.83;;
19889;SDS011;10107;51.198;6.824;2024-01-11T22:31:04;33.08;;;18.38;;
19889;SDS011;10107;51.198;6.824;2024-01-11T22:35:08;30.05;;;17.08;;
19889;SDS011;10107;51.198;6.824;2024-01-11T22:39:11;30.70;;;16.85;;
19889;SDS011;10107;51.198;6.824;2024-01-11T22:47:15;27.63;;;16.08;;
19889;SDS011;10107;51.198;6.824;2024-01-11T22:51:16;31.77;;;17.77;;
19889;SDS011;10107;51.198;6.824;2024-01-11T22:55:19;32.13;;;18.95;;
19889;SDS011;10107;51.198;6.824;2024-01-11T22:59:21;31.02;;;18.92;;
19889;SDS011;10107;51.198;6.824;2024-01-11T23:03:22;32.28;;;19.20;;
19889;SDS011;10107;51.198;6.824;2024-01-11T23:07:25;31.52;;;18.05;;
19889;SDS011;10107;51.198;6.824;2024-01-11T23:11:28;30.83;;;18.08;;
19889;SDS011;10107;51.198;6.824;2024-01-11T23:15:30;32.67;;;17.73;;
19889;SDS011;10107;51.198;6.824;2024-01-11T23:19:31;33.20;;;18.05;;
19889;SDS011;10107;51.198;6.824;2024-01-11T23:23:33;31.10;;;18.88;;
19889;SDS011;10107;51.198;6.824;2024-01-11T23:27:36;35.58;;;18.25;;
19889;SDS011;10107;51.198;6.824;2024-01-11T23:31:38;32.80;;;18.45;;
19889;SDS011;10107;51.198;6.824;2024-01-11T23:35:39;35.55;;;19.40;;
19889;SDS011;10107;51.198;6.824;2024-01-11T23:39:41;33.25;;;18.88;;
19889;SDS011;10107;51.198;6.824;2024-01-11T23:43:44;32.15;;;17.95;;
19889;SDS011;10107;51.198;6.824;2024-01-11T23:47:45;32.80;;;18.55;;
19889;SDS011;10107;51.198;6.824;2024-01-11T23:51:47;35.15;;;18.95;;
19889;SDS011;10107;51.198;6.824;2024-01-11T23:55:49;35.38;;;19.40;;
19889;SDS011;10107;51.198;6.824;2024-01-11T23:59:52;33.60;;;18.27;;
